createdAt,value
2018-12-08T00:02:07.731Z,65.62
2018-12-08T00:04:37.468Z,65.95
2018-12-08T00:07:07.136Z,66.17
2018-12-08T00:09:36.829Z,65.65
2018-12-08T00:12:06.578Z,65.86
2018-12-08T00:14:36.331Z,65.33
2018-12-08T00:17:06.045Z,65.38
2018-12-08T00:19:35.716Z,65.64
2018-12-08T00:22:05.587Z,65.31
2018-12-08T00:24:35.265Z,65.47
2018-12-08T00:27:05.043Z,65.20
2018-12-08T00:29:34.766Z,64.46
2018-12-08T00:32:04.477Z,65.03
2018-12-08T00:34:34.160Z,65.01
2018-12-08T00:37:03.849Z,64.26
2018-12-08T00:39:33.545Z,64.56
2018-12-08T00:42:03.246Z,64.68
2018-12-08T00:44:32.906Z,64.99
2018-12-08T00:47:02.596Z,64.86
2018-12-08T00:49:32.268Z,65.28
2018-12-08T00:52:01.975Z,65.26
2018-12-08T00:54:31.640Z,64.69
2018-12-08T00:57:01.329Z,64.75
2018-12-08T00:59:31.044Z,64.91
2018-12-08T01:02:00.814Z,64.29
2018-12-08T01:04:30.497Z,64.30
2018-12-08T01:07:00.202Z,64.52
2018-12-08T01:09:29.965Z,63.81
2018-12-08T01:11:59.629Z,64.21
2018-12-08T01:14:29.320Z,64.48
2018-12-08T01:16:58.975Z,64.22
2018-12-08T01:19:28.667Z,64.48
2018-12-08T01:21:58.328Z,64.17
2018-12-08T01:24:28.024Z,64.47
2018-12-08T01:26:57.708Z,64.07
2018-12-08T01:29:27.362Z,64.50
2018-12-08T01:31:57.044Z,64.16
2018-12-08T01:34:26.709Z,64.26
2018-12-08T01:36:56.413Z,63.95
2018-12-08T01:39:26.039Z,64.58
2018-12-08T01:41:55.744Z,64.54
2018-12-08T01:44:25.398Z,64.21
2018-12-08T01:46:55.085Z,64.83
2018-12-08T01:49:24.736Z,64.57
2018-12-08T01:51:54.464Z,64.30
2018-12-08T01:54:24.130Z,64.81
2018-12-08T01:56:53.825Z,64.66
2018-12-08T01:59:23.474Z,64.30
2018-12-08T02:01:53.173Z,64.42
2018-12-08T02:04:22.813Z,64.59
2018-12-08T02:06:52.496Z,64.97
2018-12-08T02:09:22.166Z,65.15
2018-12-08T02:11:51.849Z,65.28
2018-12-08T02:14:21.488Z,65.25
2018-12-08T02:16:51.160Z,64.77
2018-12-08T02:19:20.856Z,64.41
2018-12-08T02:21:50.575Z,64.61
2018-12-08T02:24:20.236Z,64.27
2018-12-08T02:26:49.983Z,64.38
2018-12-08T02:29:19.693Z,65.00
2018-12-08T02:31:49.349Z,65.22
2018-12-08T02:34:19.012Z,64.31
2018-12-08T02:36:48.663Z,64.12
2018-12-08T02:39:18.368Z,64.93
2018-12-08T02:41:48.029Z,64.71
2018-12-08T02:44:17.763Z,64.74
2018-12-08T02:46:47.406Z,64.92
2018-12-08T02:49:17.088Z,64.97
2018-12-08T02:51:46.738Z,64.15
2018-12-08T02:54:16.403Z,64.65
2018-12-08T02:56:46.095Z,64.62
2018-12-08T02:59:15.749Z,65.05
2018-12-08T03:01:45.462Z,64.48
2018-12-08T03:04:15.157Z,64.96
2018-12-08T03:06:44.856Z,64.99
2018-12-08T03:09:14.548Z,65.17
2018-12-08T03:11:44.278Z,64.74
2018-12-08T03:14:13.975Z,65.09
2018-12-08T03:16:43.668Z,64.69
2018-12-08T03:19:13.484Z,65.32
2018-12-08T03:21:43.153Z,65.28
2018-12-08T03:24:12.833Z,65.42
2018-12-08T03:26:42.500Z,65.27
2018-12-08T03:29:12.191Z,65.64
2018-12-08T03:31:41.847Z,65.78
2018-12-08T03:34:11.650Z,65.44
2018-12-08T03:36:41.351Z,64.93
2018-12-08T03:39:11.020Z,65.30
2018-12-08T03:41:40.704Z,65.97
2018-12-08T03:44:10.378Z,66.27
2018-12-08T03:46:40.058Z,66.62
2018-12-08T03:49:09.702Z,66.50
2018-12-08T03:51:39.412Z,68.03
2018-12-08T03:54:09.087Z,69.84
2018-12-08T03:56:38.807Z,70.09
2018-12-08T03:59:08.465Z,69.39
2018-12-08T04:01:38.200Z,69.79
2018-12-08T04:04:07.905Z,69.67
2018-12-08T04:06:37.614Z,69.75
2018-12-08T04:09:07.420Z,68.60
2018-12-08T04:11:37.102Z,68.83
2018-12-08T04:14:06.793Z,68.47
2018-12-08T04:16:36.490Z,67.92
2018-12-08T04:19:06.159Z,67.71
2018-12-08T04:21:35.836Z,67.62
2018-12-08T04:24:05.495Z,67.28
2018-12-08T04:26:35.203Z,66.87
2018-12-08T04:29:04.900Z,67.08
2018-12-08T04:31:34.573Z,66.97
2018-12-08T04:34:04.321Z,66.89
2018-12-08T04:36:33.995Z,66.00
2018-12-08T04:39:04.304Z,66.49
2018-12-08T04:41:33.940Z,67.19
2018-12-08T04:44:03.837Z,68.41
2018-12-08T04:46:33.501Z,68.64
2018-12-08T04:49:03.171Z,68.63
2018-12-08T04:51:32.865Z,69.76
2018-12-08T04:54:02.553Z,68.96
2018-12-08T04:56:32.204Z,68.52
2018-12-08T04:59:01.881Z,68.68
2018-12-08T05:01:31.529Z,68.17
2018-12-08T05:04:01.271Z,68.04
2018-12-08T05:06:30.938Z,68.72
2018-12-08T05:09:00.735Z,69.86
2018-12-08T05:11:30.383Z,70.14
2018-12-08T05:14:00.072Z,70.30
2018-12-08T05:16:29.728Z,69.96
2018-12-08T05:19:00.508Z,69.40
2018-12-08T05:21:30.227Z,68.73
2018-12-08T05:23:59.925Z,68.96
2018-12-08T05:26:29.580Z,67.90
2018-12-08T05:28:59.256Z,68.40
2018-12-08T05:31:28.956Z,68.05
2018-12-08T05:33:58.649Z,67.76
2018-12-08T05:36:28.330Z,67.87
2018-12-08T05:38:58.023Z,67.56
2018-12-08T05:41:27.838Z,67.92
2018-12-08T05:43:57.549Z,67.92
2018-12-08T05:46:27.221Z,66.89
2018-12-08T05:48:56.958Z,66.94
2018-12-08T05:51:26.612Z,66.77
2018-12-08T05:53:56.281Z,66.56
2018-12-08T05:56:25.981Z,65.98
2018-12-08T05:58:55.724Z,66.08
2018-12-08T06:01:25.428Z,65.82
2018-12-08T06:03:55.166Z,65.47
2018-12-08T06:06:24.837Z,64.87
2018-12-08T06:08:54.538Z,65.26
2018-12-08T06:11:24.284Z,65.07
2018-12-08T06:13:53.940Z,65.14
2018-12-08T06:16:23.655Z,65.43
2018-12-08T06:18:53.346Z,65.27
2018-12-08T06:21:35.980Z,65.67
2018-12-08T06:24:05.913Z,65.33
2018-12-08T06:26:44.429Z,65.25
2018-12-08T06:29:14.322Z,65.15
2018-12-08T06:31:44.191Z,65.52
2018-12-08T06:34:13.879Z,65.04
2018-12-08T06:36:43.549Z,65.12
2018-12-08T06:39:13.247Z,65.69
2018-12-08T06:41:42.896Z,65.97
2018-12-08T06:44:12.744Z,65.78
2018-12-08T06:46:42.721Z,66.05
2018-12-08T06:49:12.509Z,66.22
2018-12-08T06:51:42.214Z,65.37
2018-12-08T06:54:12.027Z,65.57
2018-12-08T06:56:41.728Z,65.60
2018-12-08T06:59:11.372Z,65.26
2018-12-08T07:01:41.116Z,65.42
2018-12-08T07:04:10.788Z,65.66
2018-12-08T07:06:40.453Z,65.38
2018-12-08T07:09:10.121Z,66.65
2018-12-08T07:11:39.826Z,65.63
2018-12-08T07:14:09.498Z,65.51
2018-12-08T07:16:39.187Z,66.64
2018-12-08T07:19:08.912Z,65.69
2018-12-08T07:21:38.729Z,66.20
2018-12-08T07:24:08.373Z,65.97
2018-12-08T07:26:38.072Z,65.67
2018-12-08T07:29:07.918Z,65.82
2018-12-08T07:31:37.557Z,64.67
2018-12-08T07:34:07.268Z,64.10
2018-12-08T07:36:36.975Z,64.33
2018-12-08T07:39:07.776Z,64.10
2018-12-08T07:41:37.429Z,64.00
2018-12-08T07:44:07.181Z,64.52
2018-12-08T07:46:36.977Z,63.73
2018-12-08T07:49:06.683Z,63.22
2018-12-08T07:51:36.364Z,63.20
2018-12-08T07:54:06.080Z,63.20
2018-12-08T07:56:35.769Z,63.09
2018-12-08T07:59:05.496Z,62.19
2018-12-08T08:01:35.200Z,61.99
2018-12-08T08:04:04.860Z,61.36
2018-12-08T08:06:34.641Z,61.26
2018-12-08T08:09:05.089Z,60.80
2018-12-08T08:11:34.840Z,60.16
2018-12-08T08:14:04.548Z,60.15
2018-12-08T08:16:34.252Z,60.34
2018-12-08T08:19:04.051Z,60.55
2018-12-08T08:21:33.753Z,60.03
2018-12-08T08:24:03.420Z,59.96
2018-12-08T08:26:33.111Z,60.07
2018-12-08T08:29:02.800Z,60.63
2018-12-08T08:31:32.507Z,60.24
2018-12-08T08:34:02.197Z,60.04
2018-12-08T08:36:31.876Z,60.06
2018-12-08T08:39:01.559Z,59.94
2018-12-08T08:41:31.225Z,59.45
2018-12-08T08:44:00.964Z,58.57
2018-12-08T08:46:30.597Z,58.17
2018-12-08T08:49:00.289Z,57.95
2018-12-08T08:51:29.957Z,57.44
2018-12-08T08:53:59.669Z,56.99
2018-12-08T08:56:29.368Z,57.01
2018-12-08T08:58:59.067Z,57.10
2018-12-08T09:01:28.721Z,56.99
2018-12-08T09:03:58.428Z,56.74
2018-12-08T09:06:28.096Z,56.41
2018-12-08T09:08:57.776Z,56.48
2018-12-08T09:11:27.495Z,56.12
2018-12-08T09:13:57.173Z,56.28
2018-12-08T09:16:26.831Z,56.10
2018-12-08T09:18:56.554Z,56.09
2018-12-08T09:21:26.200Z,55.80
2018-12-08T09:23:55.905Z,56.55
2018-12-08T09:26:25.580Z,56.54
2018-12-08T09:28:55.293Z,56.95
2018-12-08T09:31:25.028Z,57.21
2018-12-08T09:33:54.717Z,57.58
2018-12-08T09:36:24.421Z,57.24
2018-12-08T09:38:54.100Z,57.41
2018-12-08T09:41:23.786Z,57.62
2018-12-08T09:43:53.484Z,57.77
2018-12-08T09:46:23.186Z,57.79
2018-12-08T09:48:52.993Z,57.89
2018-12-08T09:51:22.685Z,57.85
2018-12-08T09:53:52.352Z,57.67
2018-12-08T09:56:22.065Z,57.66
2018-12-08T09:58:51.724Z,57.52
2018-12-08T10:01:21.420Z,57.56
2018-12-08T10:03:51.106Z,57.31
2018-12-08T10:06:20.816Z,57.10
2018-12-08T10:08:50.458Z,56.82
2018-12-08T10:11:20.140Z,57.02
2018-12-08T10:13:49.849Z,57.33
2018-12-08T10:16:19.565Z,56.72
2018-12-08T10:18:49.264Z,56.76
2018-12-08T10:21:18.972Z,56.88
2018-12-08T10:23:48.721Z,56.16
2018-12-08T10:26:18.396Z,56.06
2018-12-08T10:28:48.996Z,55.72
2018-12-08T10:31:18.753Z,54.68
2018-12-08T10:33:48.462Z,54.90
2018-12-08T10:36:18.128Z,55.06
2018-12-08T10:38:47.817Z,54.13
2018-12-08T10:41:17.529Z,54.34
2018-12-08T10:43:47.188Z,53.60
2018-12-08T10:46:16.865Z,53.64
2018-12-08T10:48:46.557Z,53.82
2018-12-08T10:51:16.241Z,53.99
2018-12-08T10:53:45.944Z,53.18
2018-12-08T10:56:15.611Z,53.74
2018-12-08T10:58:45.303Z,53.09
2018-12-08T11:01:18.744Z,53.67
2018-12-08T11:03:49.937Z,53.08
2018-12-08T11:06:19.637Z,53.12
2018-12-08T11:08:49.292Z,52.61
2018-12-08T11:11:18.965Z,52.81
2018-12-08T11:13:48.617Z,52.74
2018-12-08T11:16:18.292Z,52.20
2018-12-08T11:18:47.937Z,52.66
2018-12-08T11:21:17.636Z,52.70
2018-12-08T11:23:47.348Z,52.49
2018-12-08T11:26:17.080Z,51.82
2018-12-08T11:28:46.836Z,52.41
2018-12-08T11:31:16.506Z,52.86
2018-12-08T11:33:46.181Z,53.01
2018-12-08T11:36:15.881Z,53.06
2018-12-08T11:38:45.483Z,52.34
2018-12-08T11:41:15.184Z,52.69
2018-12-08T11:43:44.860Z,52.62
2018-12-08T11:46:14.572Z,52.14
2018-12-08T11:48:44.226Z,52.76
2018-12-08T11:51:13.925Z,52.56
2018-12-08T11:53:43.600Z,52.51
2018-12-08T11:56:13.244Z,52.42
2018-12-08T11:58:42.956Z,52.23
2018-12-08T12:01:12.668Z,52.14
2018-12-08T12:03:42.329Z,52.55
2018-12-08T12:06:12.022Z,52.41
2018-12-08T12:08:41.820Z,52.49
2018-12-08T12:11:11.537Z,52.12
2018-12-08T12:13:41.257Z,52.71
2018-12-08T12:16:10.913Z,52.36
2018-12-08T12:18:40.617Z,52.13
2018-12-08T12:21:10.252Z,51.93
2018-12-08T12:23:39.940Z,52.49
2018-12-08T12:26:09.586Z,52.44
2018-12-08T12:28:39.316Z,52.33
2018-12-08T12:31:08.976Z,52.38
2018-12-08T12:33:38.657Z,52.22
2018-12-08T12:36:08.393Z,52.32
2018-12-08T12:38:38.058Z,52.05
2018-12-08T12:41:07.792Z,52.31
2018-12-08T12:43:37.469Z,51.58
2018-12-08T12:46:07.124Z,52.29
2018-12-08T12:48:36.860Z,52.51
2018-12-08T12:51:06.479Z,52.77
2018-12-08T12:53:36.163Z,52.40
2018-12-08T12:56:05.837Z,52.98
2018-12-08T12:58:35.512Z,53.00
2018-12-08T13:01:05.157Z,52.71
2018-12-08T13:03:34.844Z,53.02
2018-12-08T13:06:04.620Z,52.59
2018-12-08T13:08:34.268Z,52.71
2018-12-08T13:11:03.981Z,52.98
2018-12-08T13:13:33.740Z,53.03
2018-12-08T13:16:03.502Z,53.77
2018-12-08T13:18:33.161Z,53.63
2018-12-08T13:21:02.878Z,53.32
2018-12-08T13:23:32.573Z,54.56
2018-12-08T13:26:02.301Z,54.21
2018-12-08T13:31:00.896Z,54.71
2018-12-08T13:33:30.520Z,55.01
2018-12-08T13:36:01.607Z,55.77
2018-12-08T13:38:31.317Z,55.32
2018-12-08T13:41:00.960Z,56.13
2018-12-08T13:43:30.787Z,56.32
2018-12-08T13:46:00.496Z,56.00
2018-12-08T13:48:32.688Z,57.00
2018-12-08T13:51:02.439Z,56.85
2018-12-08T13:53:36.688Z,56.71
2018-12-08T13:56:03.946Z,55.82
2018-12-08T13:58:33.628Z,55.91
2018-12-08T14:01:03.362Z,55.90
2018-12-08T14:03:32.990Z,56.39
2018-12-08T14:06:02.688Z,56.34
2018-12-08T14:08:32.346Z,56.38
2018-12-08T14:11:02.016Z,56.00
2018-12-08T14:13:31.683Z,56.08
2018-12-08T14:16:01.381Z,55.91
2018-12-08T14:18:31.088Z,56.26
2018-12-08T14:21:00.745Z,56.07
2018-12-08T14:23:30.426Z,56.96
2018-12-08T14:26:00.153Z,57.65
2018-12-08T14:28:30.217Z,57.79
2018-12-08T14:30:59.909Z,57.64
2018-12-08T14:33:29.637Z,58.05
2018-12-08T14:35:59.276Z,57.79
2018-12-08T14:38:28.966Z,57.37
2018-12-08T14:40:58.653Z,57.51
2018-12-08T14:43:28.360Z,57.03
2018-12-08T14:45:58.072Z,57.70
2018-12-08T14:48:27.735Z,57.37
2018-12-08T14:50:57.564Z,58.17
2018-12-08T14:53:27.325Z,57.79
2018-12-08T14:55:57.024Z,57.42
2018-12-08T14:58:26.656Z,57.59
2018-12-08T15:00:56.342Z,57.79
2018-12-08T15:03:27.204Z,58.09
2018-12-08T15:05:57.052Z,57.79
2018-12-08T15:08:26.721Z,57.86
2018-12-08T15:10:56.389Z,58.35
2018-12-08T15:13:26.057Z,58.02
2018-12-08T15:15:55.760Z,57.83
2018-12-08T15:18:25.448Z,58.34
2018-12-08T15:20:55.121Z,58.01
2018-12-08T15:23:24.832Z,58.14
2018-12-08T15:25:54.590Z,58.27
2018-12-08T15:28:24.256Z,58.67
2018-12-08T15:30:54.041Z,59.74
2018-12-08T15:33:23.713Z,59.72
2018-12-08T15:35:53.429Z,59.75
2018-12-08T15:38:23.065Z,59.86
2018-12-08T15:40:52.798Z,59.77
2018-12-08T15:43:22.518Z,59.77
2018-12-08T15:45:52.241Z,59.84
2018-12-08T15:48:21.897Z,59.91
2018-12-08T15:50:51.596Z,59.85
2018-12-08T15:53:21.261Z,59.76
2018-12-08T15:55:50.952Z,59.73
2018-12-08T15:58:20.632Z,59.86
2018-12-08T16:00:50.356Z,59.83
2018-12-08T16:03:20.047Z,60.00
2018-12-08T16:05:49.710Z,60.13
2018-12-08T16:08:19.409Z,60.15
2018-12-08T16:10:49.088Z,60.19
2018-12-08T16:13:18.790Z,60.30
2018-12-08T16:15:48.497Z,60.40
2018-12-08T16:18:18.227Z,60.54
2018-12-08T16:20:47.912Z,60.53
2018-12-08T16:23:17.576Z,60.76
2018-12-08T16:25:47.320Z,60.81
2018-12-08T16:28:16.979Z,60.92
2018-12-08T16:30:46.685Z,60.97
2018-12-08T16:33:16.397Z,61.23
2018-12-08T16:35:46.064Z,61.40
2018-12-08T16:38:15.741Z,61.52
2018-12-08T16:40:45.441Z,61.54
2018-12-08T16:43:15.153Z,61.83
2018-12-08T16:45:44.860Z,61.83
2018-12-08T16:48:14.546Z,61.85
2018-12-08T16:50:44.261Z,61.85
2018-12-08T16:53:13.958Z,62.10
2018-12-08T16:55:43.757Z,61.99
2018-12-08T16:58:13.447Z,61.94
2018-12-08T17:00:43.225Z,61.89
2018-12-08T17:03:12.965Z,61.97
2018-12-08T17:05:42.669Z,61.99
2018-12-08T17:08:12.331Z,62.14
2018-12-08T17:10:42.010Z,62.03
2018-12-08T17:13:11.678Z,62.49
2018-12-08T17:15:41.361Z,62.98
2018-12-08T17:18:11.085Z,62.63
2018-12-08T17:20:40.746Z,63.10
2018-12-08T17:23:10.465Z,63.05
2018-12-08T17:25:40.133Z,63.02
2018-12-08T17:28:09.829Z,63.08
2018-12-08T17:30:39.505Z,63.03
2018-12-08T17:33:09.227Z,63.00
2018-12-08T17:35:38.907Z,62.84
2018-12-08T17:38:08.621Z,62.99
2018-12-08T17:40:38.280Z,62.82
2018-12-08T17:43:07.975Z,62.78
2018-12-08T17:45:37.629Z,62.77
2018-12-08T17:48:07.328Z,62.69
2018-12-08T17:50:36.979Z,62.77
2018-12-08T17:53:06.690Z,62.86
2018-12-08T17:55:36.528Z,62.64
2018-12-08T17:58:06.168Z,62.59
2018-12-08T18:00:35.921Z,62.55
2018-12-08T18:03:05.653Z,62.57
2018-12-08T18:05:35.393Z,62.47
2018-12-08T18:08:05.089Z,62.48
2018-12-08T18:10:34.772Z,62.75
2018-12-08T18:13:04.425Z,62.71
2018-12-08T18:15:34.137Z,62.70
2018-12-08T18:18:03.800Z,62.81
2018-12-08T18:20:33.505Z,62.58
2018-12-08T18:23:03.204Z,63.02
2018-12-08T18:25:32.865Z,63.08
2018-12-08T18:28:02.565Z,63.29
2018-12-08T18:30:32.205Z,63.43
2018-12-08T18:33:01.936Z,63.58
2018-12-08T18:35:31.620Z,63.64
2018-12-08T18:38:01.338Z,63.52
2018-12-08T18:40:32.054Z,63.65
2018-12-08T18:43:01.885Z,63.87
2018-12-08T18:45:31.541Z,63.45
2018-12-08T18:48:01.232Z,63.87
2018-12-08T18:50:30.929Z,63.97
2018-12-08T18:53:00.638Z,64.05
2018-12-08T18:55:30.278Z,64.11
2018-12-08T18:57:59.999Z,64.11
2018-12-08T19:00:29.814Z,64.21
2018-12-08T19:02:59.545Z,64.42
2018-12-08T19:05:29.266Z,64.46
2018-12-08T19:07:58.920Z,64.24
2018-12-08T19:10:28.673Z,64.43
2018-12-08T19:12:58.354Z,64.69
2018-12-08T19:15:28.025Z,64.71
2018-12-08T19:17:57.813Z,64.77
2018-12-08T19:20:27.483Z,65.26
2018-12-08T19:22:57.197Z,64.79
2018-12-08T19:25:26.920Z,64.65
2018-12-08T19:27:56.629Z,64.97
2018-12-08T19:30:26.430Z,65.32
2018-12-08T19:32:56.100Z,65.67
2018-12-08T19:35:25.852Z,65.67
2018-12-08T19:37:55.556Z,65.83
2018-12-08T19:40:25.252Z,66.00
2018-12-08T19:42:54.958Z,66.26
2018-12-08T19:45:24.654Z,67.37
2018-12-08T19:47:54.383Z,66.54
2018-12-08T19:50:24.033Z,66.69
2018-12-08T19:52:53.754Z,66.63
2018-12-08T19:55:23.456Z,66.58
2018-12-08T19:57:53.142Z,66.73
2018-12-08T20:00:22.804Z,66.63
2018-12-08T20:02:52.534Z,66.55
2018-12-08T20:05:22.189Z,66.23
2018-12-08T20:07:51.941Z,66.20
2018-12-08T20:10:21.637Z,66.34
2018-12-08T20:12:51.337Z,66.11
2018-12-08T20:15:21.209Z,65.98
2018-12-08T20:17:50.876Z,65.89
2018-12-08T20:20:20.569Z,65.80
2018-12-08T20:22:50.242Z,65.73
2018-12-08T20:25:19.921Z,65.52
2018-12-08T20:27:49.628Z,65.55
2018-12-08T20:30:19.365Z,65.38
2018-12-08T20:32:49.124Z,65.59
2018-12-08T20:35:18.847Z,65.39
2018-12-08T20:37:48.505Z,65.69
2018-12-08T20:40:18.216Z,65.65
2018-12-08T20:42:47.881Z,65.51
2018-12-08T20:45:17.590Z,65.55
2018-12-08T20:47:47.308Z,65.44
2018-12-08T20:50:17.001Z,65.38
2018-12-08T20:52:46.681Z,65.92
2018-12-08T20:55:16.388Z,66.15
2018-12-08T20:57:46.144Z,66.02
2018-12-08T21:00:15.804Z,65.99
2018-12-08T21:02:45.522Z,66.02
2018-12-08T21:05:15.173Z,65.84
2018-12-08T21:07:44.877Z,66.04
2018-12-08T21:10:14.564Z,65.90
2018-12-08T21:12:44.301Z,65.82
2018-12-08T21:15:14.053Z,65.84
2018-12-08T21:17:43.725Z,65.88
2018-12-08T21:20:13.442Z,66.30
2018-12-08T21:22:43.117Z,66.55
2018-12-08T21:25:12.868Z,66.46
2018-12-08T21:27:42.541Z,66.69
2018-12-08T21:30:12.278Z,66.59
2018-12-08T21:32:41.944Z,67.19
2018-12-08T21:35:11.636Z,67.20
2018-12-08T21:37:41.284Z,67.25
2018-12-08T21:40:30.141Z,67.41
2018-12-08T21:42:59.825Z,67.20
2018-12-08T21:45:29.813Z,66.99
2018-12-08T21:47:59.483Z,67.30
2018-12-08T21:50:29.264Z,67.44
2018-12-08T21:52:59.108Z,67.58
2018-12-08T21:55:28.813Z,67.55
2018-12-08T21:57:58.525Z,67.12
2018-12-08T22:00:28.182Z,66.98
2018-12-08T22:02:57.928Z,67.09
2018-12-08T22:05:27.568Z,67.01
2018-12-08T22:07:57.312Z,67.41
2018-12-08T22:10:26.956Z,67.01
2018-12-08T22:12:56.693Z,67.14
2018-12-08T22:15:26.423Z,67.08
2018-12-08T22:17:56.079Z,67.00
2018-12-08T22:20:25.765Z,66.90
2018-12-08T22:22:55.448Z,66.69
2018-12-08T22:25:25.108Z,66.59
2018-12-08T22:27:54.808Z,66.57
2018-12-08T22:30:24.461Z,66.36
2018-12-08T22:32:54.133Z,66.60
2018-12-08T22:35:23.904Z,66.52
2018-12-08T22:37:53.673Z,66.66
2018-12-08T22:40:23.340Z,66.74
2018-12-08T22:42:53.026Z,66.96
2018-12-08T22:45:22.680Z,66.55
2018-12-08T22:47:52.373Z,66.64
2018-12-08T22:50:22.105Z,66.76
2018-12-08T22:52:51.780Z,66.90
2018-12-08T22:55:21.517Z,66.81
2018-12-08T22:57:51.148Z,66.79
2018-12-08T23:00:31.642Z,66.80
2018-12-08T23:03:01.328Z,66.79
2018-12-08T23:05:31.004Z,66.55
2018-12-08T23:08:00.769Z,66.41
2018-12-08T23:10:30.495Z,66.32
2018-12-08T23:13:00.257Z,65.88
2018-12-08T23:15:29.955Z,66.10
2018-12-08T23:17:59.661Z,65.88
2018-12-08T23:20:29.362Z,66.00
2018-12-08T23:22:59.043Z,65.76
2018-12-08T23:25:28.724Z,65.47
2018-12-08T23:27:58.396Z,65.51
2018-12-08T23:30:28.129Z,65.11
2018-12-08T23:32:57.788Z,65.46
2018-12-08T23:35:27.803Z,65.74
2018-12-08T23:37:57.468Z,65.77
2018-12-08T23:40:27.178Z,65.90
2018-12-08T23:42:56.995Z,65.91
2018-12-08T23:45:26.670Z,66.02
2018-12-08T23:47:56.384Z,65.91
2018-12-08T23:50:26.076Z,66.02
2018-12-08T23:52:55.814Z,66.12
2018-12-08T23:55:25.539Z,66.64
2018-12-08T23:57:55.255Z,66.78
